Accueil
METAR-TAF:

METAR-TAF

Aéroports :

Téhéran, Iran

Aéroport international Mehrabad

latitude: 35-41N, longitude: 051-21E, altitude: 1204 m

Observation

Le bulletin a été fait il y a 36 minutes, à 09:00 UTC
Vent 18 kt de ouest
Température 31°C
Humidité 16%
Pression 1016 hPa
Visibilité 10 km ou plus
pas de nuages en-dessous de 1500 mètres et pas de cumulonimbus.

METAR: OIII 290900Z 27018KT CAVOK 31/02 Q1016 A3001 NOSIG NOSIG

Heure: 14:06 (09:36 UTC)

Prévision

Le bulletin a été fait il y a 4 heures et 6 minutes, à 05:30 UTC
Prévision valable du 29 à 06 UTC au 30 à 12 UTC
Vent 10 kt de ouest/nord-ouest
Visibilité: 7000 m
Temporairement
du 29 à 06 UTC au 29 à 16 UTC
Vent 17 kt de ouest/sud-ouest avec des rafales jusqu'à 29 kt
Visibilité: 4000 m
sable
Temporairement
du 29 à 08 UTC au 29 à 12 UTC
Vent 14 kt de sud-ouest

TAF: OIII 290530Z 2906/3012 30005MPS 7000 NSC TEMPO 2906/2916 24009G15MPS 4000 SA TEMPO 2908/2912 22007MPS

Observations et prévisions météorologiques de plus de 4000 aéroports (messages METAR et TAF).

Les stations disponibles sont représentées par des disques jaunes et rouges sur la carte.

Passer la souris dessus pour voir le nom de la station.

Cliquer dessus pour voir les observations et prévisions météorologiques.

Pour changer de carte: cliquez sur les boutons verts avec une croix noire pour zoomer, sur le bouton vert avec un tiret pour effectuer un zoom arrière, ou sur les flèches vertes pour les cartes adjacentes.


METAR-TAF: